Time;durP1;ratioP1;P1;durP2;ratioP2;P2;SDS_P1;SDS_P2;PMS_P1;PMS_P2;Temp;Humidity;BMP_temperature;BMP_pressure;BME280_temperature;BME280_humidity;BME280_pressure;Samples;Min_cycle;Max_cycle;Signal;HPM_P1;HPM_P2
2022/06/11 00:01:13;;;;;;;4.77;4.37;;;;;;;16.26;100.00;99827.53;4721450;30;20595;-84
2022/06/11 00:03:40;;;;;;;5.10;4.30;;;;;;;16.30;100.00;99821.38;4723528;30;20272;-84
2022/06/11 00:06:12;;;;;;;4.63;3.83;;;;;;;16.21;100.00;99831.00;4696639;30;20253;-85
2022/06/11 00:08:45;;;;;;;5.07;4.00;;;;;;;16.26;100.00;99827.53;4725184;30;20319;-83
2022/06/11 00:11:13;;;;;;;5.07;4.30;;;;;;;16.20;100.00;99828.53;4713470;30;20299;-83
2022/06/11 00:13:43;;;;;;;4.40;4.07;;;;;;;16.11;100.00;99828.16;4699871;30;20251;-84
2022/06/11 00:16:12;;;;;;;4.30;4.00;;;;;;;16.07;100.00;99829.72;4714142;30;20333;-84
2022/06/11 00:18:42;;;;;;;4.43;4.13;;;;;;;16.11;100.00;99821.94;4693564;30;20337;-85
2022/06/11 00:21:16;;;;;;;4.33;4.00;;;;;;;16.21;100.00;99835.56;4703985;30;20253;-85
2022/06/11 00:23:46;;;;;;;4.90;4.50;;;;;;;16.11;100.00;99825.44;4698972;30;20709;-84
2022/06/11 00:26:15;;;;;;;4.50;4.10;;;;;;;16.06;100.00;99835.38;4715864;30;20789;-85
2022/06/11 00:28:43;;;;;;;4.40;4.00;;;;;;;15.91;100.00;99835.97;4706266;30;20249;-87
2022/06/11 00:31:12;;;;;;;5.37;4.23;;;;;;;16.02;100.00;99835.06;4706803;30;20233;-86
2022/06/11 00:33:40;;;;;;;4.60;4.20;;;;;;;16.09;100.00;99838.41;4692892;30;20661;-84
2022/06/11 00:36:10;;;;;;;4.90;4.40;;;;;;;16.27;100.00;99835.41;4717154;30;20363;-85
2022/06/11 00:38:43;;;;;;;4.37;3.97;;;;;;;16.20;100.00;99832.06;4717649;30;20245;-85
2022/06/11 00:41:14;;;;;;;4.20;3.80;;;;;;;16.11;100.00;99827.34;4688675;30;20328;-84
2022/06/11 00:43:47;;;;;;;4.30;3.90;;;;;;;16.12;100.00;99827.09;4702944;30;20233;-84
2022/06/11 00:46:34;;;;;;;4.60;4.20;;;;;;;16.03;100.00;99828.59;4701432;30;20257;-84
2022/06/11 00:49:08;;;;;;;6.13;4.20;;;;;;;16.00;100.00;99820.19;4718414;30;20242;-84
2022/06/11 00:51:38;;;;;;;4.73;4.10;;;;;;;16.09;100.00;99824.09;4705930;30;20257;-84
2022/06/11 00:54:14;;;;;;;4.47;4.07;;;;;;;15.97;100.00;99815.25;4730636;30;20255;-83
2022/06/11 00:56:49;;;;;;;5.63;4.23;;;;;;;15.94;100.00;99819.28;4719314;30;20295;-85
2022/06/11 00:59:36;;;;;;;4.77;3.83;;;;;;;15.98;100.00;99812.31;4717719;30;20275;-85
2022/06/11 01:02:04;;;;;;;4.57;4.10;;;;;;;15.96;100.00;99814.44;4701956;30;20241;-85
2022/06/11 01:04:56;;;;;;;7.00;4.63;;;;;;;16.03;100.00;99822.38;4711819;30;20788;-85
2022/06/11 01:07:46;;;;;;;4.67;4.27;;;;;;;16.01;100.00;99817.19;4717227;30;20264;-85
2022/06/11 01:10:30;;;;;;;4.30;3.90;;;;;;;16.07;100.00;99812.69;4705593;30;20250;-83
2022/06/11 01:13:10;;;;;;;4.30;4.00;;;;;;;16.02;100.00;99809.91;4706076;30;20705;-83
2022/06/11 01:15:53;;;;;;;4.50;3.90;;;;;;;15.84;100.00;99806.47;4729855;30;20245;-83
2022/06/11 01:18:31;;;;;;;4.20;3.80;;;;;;;15.94;100.00;99808.47;4728582;30;20241;-83
2022/06/11 01:21:13;;;;;;;4.60;4.00;;;;;;;15.82;100.00;99805.06;4703482;30;20618;-85
2022/06/11 01:23:59;;;;;;;4.23;3.90;;;;;;;15.77;100.00;99802.31;4716581;30;20299;-84
2022/06/11 01:26:37;;;;;;;4.10;3.70;;;;;;;15.90;100.00;99810.06;4729767;30;20255;-85
2022/06/11 01:29:24;;;;;;;6.80;4.00;;;;;;;15.89;100.00;99807.59;4686866;30;20249;-84
2022/06/11 09:30:45;;;;;;;3.45;2.30;;;;;;;24.72;59.03;99913.81;5042667;24;21005;-83
2022/06/11 09:33:20;;;;;;;2.90;2.40;;;;;;;24.54;57.93;99915.53;4762250;29;20196;-82
2022/06/11 09:35:50;;;;;;;2.55;2.20;;;;;;;24.64;59.36;99910.97;4751836;29;20203;-82
2022/06/11 09:38:22;;;;;;;3.25;2.33;;;;;;;24.52;62.39;99911.50;4793311;29;20829;-83
2022/06/11 09:40:55;;;;;;;3.25;2.17;;;;;;;24.62;62.86;99913.22;4778732;29;20288;-80
2022/06/11 09:44:41;;;;;;;3.17;2.63;;;;;;;25.25;58.55;99900.31;5049319;28;20546;-80
2022/06/11 09:47:11;;;;;;;4.15;2.58;;;;;;;25.21;58.82;99910.28;5029887;28;20204;-78
2022/06/11 09:49:41;;;;;;;3.33;2.30;;;;;;;24.87;55.00;99905.28;5046752;28;20383;-80
2022/06/11 09:52:47;;;;;;;3.33;2.08;;;;;;;24.87;55.46;99904.50;5048681;28;20307;-80
2022/06/11 09:56:01;;;;;;;2.97;2.00;;;;;;;24.72;59.17;99904.78;5048460;28;20262;-79
2022/06/11 09:58:33;;;;;;;2.65;1.77;;;;;;;24.77;54.78;99900.00;5046523;28;20322;-78
2022/06/11 10:01:03;;;;;;;2.65;2.10;;;;;;;24.62;55.71;99896.78;5032339;28;20230;-80
2022/06/11 10:03:41;;;;;;;3.22;2.30;;;;;;;24.56;55.55;99904.28;5048500;28;20246;-79
2022/06/11 10:06:14;;;;;;;2.70;2.00;;;;;;;24.70;54.24;99896.03;5044182;28;20178;-79
2022/06/11 10:09:01;;;;;;;3.20;2.20;;;;;;;25.27;54.84;99900.81;5029109;28;20305;-79
2022/06/11 10:11:36;;;;;;;3.30;2.03;;;;;;;25.33;52.96;99902.34;5027804;28;20267;-79
2022/06/11 10:14:37;;;;;;;2.25;2.05;;;;;;;25.64;53.66;99901.63;5018483;28;20280;-79
2022/06/11 10:17:26;;;;;;;2.60;2.40;;;;;;;25.70;53.67;99894.88;5039184;28;20278;-79
2022/06/11 10:20:22;;;;;;;3.80;2.17;;;;;;;25.77;56.08;99890.56;5046332;28;20292;-81
2022/06/11 10:23:25;;;;;;;4.07;2.08;;;;;;;25.89;53.86;99900.97;4994305;28;20595;-80
2022/06/11 10:26:26;;;;;;;2.53;1.95;;;;;;;25.77;51.23;99893.31;5044746;28;20191;-80
2022/06/11 10:29:34;;;;;;;2.15;2.00;;;;;;;25.83;54.63;99892.06;5023490;28;20382;-79
2022/06/11 10:32:03;;;;;;;2.20;2.00;;;;;;;25.76;51.87;99888.94;5044380;28;20505;-80
2022/06/11 10:34:31;;;;;;;2.83;2.20;;;;;;;26.17;51.54;99888.69;5030393;28;20961;-80
2022/06/11 10:37:07;;;;;;;2.10;1.90;;;;;;;26.10;53.80;99884.75;5045748;28;20668;-81
2022/06/11 10:39:40;;;;;;;2.58;2.20;;;;;;;26.15;54.85;99888.19;5029651;28;20390;-79
2022/06/11 10:42:14;;;;;;;2.90;2.03;;;;;;;26.08;52.59;99890.56;5045842;28;20195;-80
2022/06/11 10:44:52;;;;;;;3.53;2.03;;;;;;;25.83;49.10;99874.78;5028983;28;20848;-79
2022/06/11 10:47:39;;;;;;;3.40;2.10;;;;;;;25.78;51.68;99877.66;5014048;28;20294;-79
2022/06/11 10:50:09;;;;;;;4.22;2.03;;;;;;;26.20;52.96;99868.81;5013040;28;20189;-80
2022/06/11 10:52:55;;;;;;;2.40;2.10;;;;;;;26.17;50.49;99863.16;5029427;28;20296;-80
2022/06/11 10:55:37;;;;;;;2.65;1.92;;;;;;;25.82;54.86;99871.22;5035371;28;20632;-80
2022/06/11 10:58:16;;;;;;;4.70;2.08;;;;;;;26.00;54.87;99865.81;4999288;28;20400;-80
2022/06/11 11:00:53;;;;;;;2.13;1.95;;;;;;;25.88;52.51;99866.41;5032456;28;20666;-80
2022/06/11 11:03:25;;;;;;;2.20;2.00;;;;;;;26.33;49.91;99866.31;4999539;28;20202;-79
2022/06/11 11:05:58;;;;;;;3.53;2.08;;;;;;;26.76;48.04;99858.19;5031562;28;20276;-78
2022/06/11 11:08:25;;;;;;;2.55;1.80;;;;;;;26.76;50.10;99858.19;5032374;28;20575;-79
2022/06/11 11:10:54;;;;;;;4.72;1.92;;;;;;;26.69;48.79;99866.88;5015982;28;20193;-79
2022/06/11 11:13:38;;;;;;;2.25;1.75;;;;;;;26.70;47.78;99852.84;5015422;28;20482;-80
2022/06/11 11:16:11;;;;;;;2.60;1.90;;;;;;;26.38;48.42;99860.66;5015236;28;20209;-80
2022/06/11 11:19:09;;;;;;;2.50;2.10;;;;;;;26.57;46.03;99855.72;5031871;28;20260;-79
2022/06/11 11:21:40;;;;;;;4.78;2.00;;;;;;;26.40;45.76;99850.19;5031339;28;20287;-81
2022/06/11 11:24:17;;;;;;;2.58;1.83;;;;;;;26.45;46.40;99848.09;5032655;28;20754;-81
2022/06/11 11:26:58;;;;;;;3.15;1.98;;;;;;;26.11;49.80;99865.25;4998895;28;20281;-80
2022/06/11 11:29:30;;;;;;;3.58;1.90;;;;;;;26.15;46.75;99852.50;4996183;28;20421;-81
2022/06/11 11:32:02;;;;;;;2.33;1.80;;;;;;;26.31;48.17;99854.84;4996898;28;20309;-80
2022/06/11 11:34:34;;;;;;;3.00;1.90;;;;;;;26.51;46.50;99840.50;5019998;28;20277;-80
2022/06/11 11:37:04;;;;;;;2.75;1.75;;;;;;;26.24;47.08;99836.88;5018819;28;20247;-82
2022/06/11 11:39:34;;;;;;;5.22;2.20;;;;;;;26.81;44.73;99836.03;5035601;28;20193;-81
2022/06/11 11:42:10;;;;;;;3.10;2.00;;;;;;;26.17;48.40;99835.72;5032062;28;20502;-79
2022/06/11 11:44:50;;;;;;;3.67;2.00;;;;;;;26.34;47.30;99833.03;5013927;28;20207;-79
2022/06/11 11:47:30;;;;;;;2.42;1.77;;;;;;;26.53;46.08;99830.00;4998095;28;20196;-80
2022/06/11 11:50:16;;;;;;;2.20;2.00;;;;;;;26.09;45.69;99826.28;5013976;28;20276;-80
2022/06/11 11:52:46;;;;;;;2.88;1.90;;;;;;;25.98;48.67;99819.47;4997858;28;20402;-79
2022/06/11 11:55:31;;;;;;;3.13;1.88;;;;;;;26.70;48.24;99814.34;5014128;28;20732;-83
2022/06/11 11:57:59;;;;;;;2.55;1.90;;;;;;;27.10;47.86;99823.31;5014059;28;20184;-80
2022/06/11 12:00:52;;;;;;;2.42;2.00;;;;;;;26.95;48.67;99815.53;5031832;28;20243;-79
2022/06/11 12:03:34;;;;;;;2.75;2.00;;;;;;;26.97;45.52;99809.72;5014530;28;20319;-79
2022/06/11 12:06:02;;;;;;;1.92;1.73;;;;;;;27.12;46.07;99804.53;5011761;28;20243;-78
2022/06/11 12:08:32;;;;;;;2.83;2.15;;;;;;;26.85;47.22;99812.25;5013124;28;20189;-79
2022/06/11 12:11:02;;;;;;;3.70;1.92;;;;;;;26.70;47.48;99819.03;5014249;28;20934;-82
2022/06/11 12:13:43;;;;;;;2.70;2.22;;;;;;;27.04;47.75;99812.78;5016064;28;20178;-78
2022/06/11 12:16:18;;;;;;;4.82;1.80;;;;;;;27.34;44.90;99800.00;5014017;28;20949;-79
2022/06/11 12:18:53;;;;;;;2.15;1.92;;;;;;;27.51;43.70;99805.47;5011000;28;20202;-80
2022/06/11 12:21:26;;;;;;;2.15;1.90;;;;;;;27.40;45.65;99807.72;4994833;28;20263;-81
2022/06/11 12:24:01;;;;;;;2.75;2.08;;;;;;;27.49;45.49;99811.28;5010990;28;20206;-82
2022/06/11 12:26:31;;;;;;;2.92;2.00;;;;;;;27.26;45.40;99807.09;5011264;28;20356;-81
2022/06/11 12:29:05;;;;;;;2.13;1.92;;;;;;;27.37;47.02;99810.34;5002066;28;20193;-82
2022/06/11 12:31:33;;;;;;;2.47;1.95;;;;;;;27.31;46.34;99806.13;4998547;28;20209;-80
2022/06/11 12:34:02;;;;;;;1.98;1.70;;;;;;;27.26;46.53;99801.59;5014488;28;20807;-80
2022/06/11 12:36:53;;;;;;;2.28;1.70;;;;;;;27.07;45.10;99809.38;5014328;28;20723;-80
2022/06/11 12:39:52;;;;;;;2.05;1.80;;;;;;;27.01;45.24;99797.75;5014816;28;20526;-80
2022/06/11 12:42:35;;;;;;;2.47;1.70;;;;;;;27.36;43.13;99800.44;5030447;28;20285;-79
2022/06/11 12:45:08;;;;;;;4.20;1.70;;;;;;;27.55;42.45;99800.94;5030993;28;20228;-80
2022/06/11 12:47:47;;;;;;;1.95;1.60;;;;;;;27.77;41.28;99800.69;5030170;28;20344;-79
2022/06/11 12:50:48;;;;;;;2.65;1.50;;;;;;;27.66;44.03;99801.41;5016293;28;20544;-79
2022/06/11 12:53:30;;;;;;;2.28;1.90;;;;;;;27.31;43.81;99795.13;5030622;28;20293;-78
2022/06/11 12:56:04;;;;;;;1.92;1.70;;;;;;;27.51;41.92;99794.47;5031596;28;21092;-78
2022/06/11 12:58:46;;;;;;;2.97;1.70;;;;;;;27.52;42.41;99793.34;5013715;28;20200;-79
2022/06/11 13:01:19;;;;;;;2.28;1.70;;;;;;;27.89;42.10;99792.56;5013369;28;20197;-79
2022/06/11 13:04:05;;;;;;;3.90;1.73;;;;;;;28.32;42.14;99791.56;5013594;28;20290;-80
2022/06/11 13:07:04;;;;;;;2.55;1.80;;;;;;;28.39;40.50;99787.16;5029615;28;21010;-82
2022/06/11 13:09:40;;;;;;;1.98;1.63;;;;;;;28.68;41.34;99779.97;5023157;28;20296;-79
2022/06/11 13:12:16;;;;;;;2.28;1.88;;;;;;;29.52;38.87;99784.28;5029525;28;20287;-79
2022/06/11 13:14:51;;;;;;;4.35;1.90;;;;;;;29.41;35.85;99772.88;5013237;28;20298;-78
2022/06/11 13:17:31;;;;;;;1.90;1.80;;;;;;;29.36;36.87;99775.84;5029815;28;20515;-78
2022/06/11 13:20:07;;;;;;;3.63;2.10;;;;;;;29.65;36.08;99772.91;5030175;28;20565;-82
2022/06/11 13:22:49;;;;;;;3.42;1.83;;;;;;;30.83;34.62;99775.53;5031863;28;21002;-79
2022/06/11 13:25:41;;;;;;;1.85;1.60;;;;;;;31.55;33.64;99767.25;5013524;28;20301;-78
2022/06/11 13:28:35;;;;;;;2.55;1.60;;;;;;;32.19;32.80;99772.50;5030048;28;20684;-78
2022/06/11 13:31:13;;;;;;;1.77;1.65;;;;;;;33.82;30.56;99764.78;5013647;28;20244;-81
2022/06/11 13:33:59;;;;;;;4.20;1.50;;;;;;;33.96;29.76;99751.09;5029759;28;20277;-81
2022/06/11 13:36:51;;;;;;;3.47;2.00;;;;;;;32.73;29.46;99759.47;5014032;28;20841;-79
2022/06/11 13:39:47;;;;;;;1.92;1.60;;;;;;;33.77;28.12;99756.75;5014983;28;20699;-83
2022/06/11 13:42:24;;;;;;;2.13;1.70;;;;;;;32.45;29.10;99747.75;5013646;28;20170;-79
2022/06/11 13:45:00;;;;;;;1.90;1.80;;;;;;;33.33;29.34;99754.34;5029889;28;20884;-79
2022/06/11 13:47:45;;;;;;;3.83;1.75;;;;;;;32.22;30.98;99749.59;5031792;28;20532;-79
2022/06/11 13:50:43;;;;;;;3.35;1.50;;;;;;;32.86;30.18;99751.00;5029678;28;20196;-80
2022/06/11 13:56:26;;;;;;;2.03;1.60;;;;;;;33.25;29.52;99751.81;5030064;28;20599;-80
2022/06/11 13:59:28;;;;;;;5.30;1.88;;;;;;;32.71;28.64;99741.56;4996892;28;20200;-79
2022/06/11 14:02:40;;;;;;;2.85;1.90;;;;;;;32.93;28.08;99745.59;5024640;28;20312;-78
2022/06/11 14:05:15;;;;;;;2.70;1.73;;;;;;;33.98;27.45;99735.66;5019524;28;20887;-81
2022/06/11 14:07:42;;;;;;;2.22;1.45;;;;;;;33.11;28.48;99735.66;5029341;28;20286;-82
2022/06/11 14:10:36;;;;;;;1.63;1.52;;;;;;;32.63;28.23;99737.06;5010299;28;20190;-81
2022/06/11 14:13:12;;;;;;;3.45;1.60;;;;;;;35.99;24.12;99730.09;5010091;28;20696;-80
2022/06/11 14:15:48;;;;;;;1.58;1.48;;;;;;;37.57;22.91;99731.22;5009780;28;20178;-79
2022/06/11 14:18:21;;;;;;;1.67;1.40;;;;;;;34.61;25.76;99723.88;4993762;28;20339;-79
2022/06/11 14:20:50;;;;;;;2.83;1.50;;;;;;;31.78;27.65;99730.28;5013795;28;20744;-78
2022/06/11 14:23:17;;;;;;;1.63;1.52;;;;;;;33.82;25.75;99715.56;5016428;28;20307;-80
2022/06/11 14:25:47;;;;;;;5.20;1.40;;;;;;;33.74;26.14;99713.81;5050819;28;20543;-78
2022/06/11 14:28:14;;;;;;;3.50;1.60;;;;;;;31.28;29.43;99711.59;5049245;28;20201;-81
2022/06/11 14:30:50;;;;;;;2.35;1.55;;;;;;;30.52;31.22;99712.59;5053828;28;20632;-78
2022/06/11 14:33:18;;;;;;;2.15;1.70;;;;;;;32.42;28.90;99709.66;5052812;28;20637;-78
2022/06/11 14:35:48;;;;;;;1.80;1.70;;;;;;;34.34;25.89;99719.53;5053449;28;20307;-79
2022/06/11 14:38:20;;;;;;;2.88;1.60;;;;;;;34.65;24.48;99702.44;5053281;28;20627;-79
2022/06/11 14:40:50;;;;;;;2.92;1.40;;;;;;;34.48;25.63;99700.25;5036523;28;20725;-82
2022/06/11 14:43:19;;;;;;;3.15;1.95;;;;;;;31.30;29.65;99698.22;5035973;28;20213;-80
2022/06/11 14:45:48;;;;;;;1.70;1.60;;;;;;;29.99;31.60;99694.38;5003235;28;20751;-79
2022/06/11 14:48:35;;;;;;;3.38;1.73;;;;;;;29.06;35.36;99692.41;5032843;28;20197;-81
2022/06/11 14:51:05;;;;;;;2.65;1.60;;;;;;;28.74;36.33;99695.97;5016427;28;20545;-79
2022/06/11 14:54:00;;;;;;;2.60;1.63;;;;;;;27.99;36.42;99693.06;5032656;28;20200;-80
2022/06/11 14:56:42;;;;;;;2.25;1.60;;;;;;;27.71;38.06;99700.19;5032833;28;20227;-84
2022/06/11 14:59:24;;;;;;;3.47;1.92;;;;;;;27.90;38.96;99688.75;5032602;28;20203;-80
2022/06/11 15:02:04;;;;;;;1.80;1.70;;;;;;;28.35;38.29;99705.50;5032433;28;20668;-80
2022/06/11 15:04:53;;;;;;;2.35;1.65;;;;;;;28.63;36.82;99700.25;5000111;28;20206;-82
2022/06/11 15:07:29;;;;;;;1.75;1.65;;;;;;;28.51;37.20;99694.69;5019569;28;20202;-81
2022/06/11 15:10:24;;;;;;;3.30;1.65;;;;;;;28.10;37.37;99696.22;5019548;28;20186;-79
2022/06/11 15:13:15;;;;;;;2.40;1.70;;;;;;;27.36;39.90;99693.16;5032342;28;20251;-78
2022/06/11 15:15:51;;;;;;;1.70;1.60;;;;;;;27.25;40.55;99689.19;5012694;28;20183;-81
2022/06/11 15:18:26;;;;;;;1.80;1.70;;;;;;;27.38;39.50;99688.16;5025200;28;20756;-80
2022/06/11 15:21:05;;;;;;;3.63;1.90;;;;;;;27.31;39.01;99690.59;5016307;28;20608;-78
2022/06/11 15:23:42;;;;;;;3.05;1.70;;;;;;;26.99;40.61;99684.53;5016107;28;20261;-80
2022/06/11 15:26:17;;;;;;;4.13;2.00;;;;;;;26.85;40.51;99677.56;5016565;28;20289;-80
2022/06/11 15:29:03;;;;;;;2.17;1.60;;;;;;;27.00;37.57;99685.34;5033027;28;20520;-78
2022/06/11 15:31:31;;;;;;;1.90;1.70;;;;;;;27.22;36.86;99687.06;5032951;28;20255;-81
2022/06/11 15:34:01;;;;;;;2.00;1.80;;;;;;;27.19;38.95;99680.28;5016210;28;20704;-79
2022/06/11 15:36:53;;;;;;;2.42;1.50;;;;;;;27.36;38.82;99684.91;5017098;28;20173;-79
2022/06/11 15:39:19;;;;;;;3.08;1.80;;;;;;;27.48;38.19;99669.34;5016218;28;20734;-79
2022/06/11 15:41:47;;;;;;;1.80;1.70;;;;;;;27.55;37.41;99671.59;5015868;28;20214;-81
2022/06/11 15:44:17;;;;;;;2.03;1.83;;;;;;;27.70;38.13;99673.78;5015867;28;20228;-82
2022/06/11 15:47:04;;;;;;;2.53;1.95;;;;;;;27.84;37.11;99679.06;5015862;28;20320;-82
2022/06/11 15:49:35;;;;;;;2.00;1.60;;;;;;;27.52;39.39;99678.59;4999329;28;20188;-83
2022/06/11 15:52:28;;;;;;;2.00;1.60;;;;;;;27.58;38.42;99684.69;5015851;28;20350;-79
2022/06/11 15:55:13;;;;;;;2.05;1.80;;;;;;;27.71;38.59;99693.88;5015047;28;20295;-82
2022/06/11 15:57:52;;;;;;;2.95;1.70;;;;;;;27.79;39.70;99691.06;5015573;28;20268;-81
2022/06/11 16:00:21;;;;;;;2.92;1.65;;;;;;;27.81;40.85;99677.00;5015855;28;20663;-84
2022/06/11 16:02:54;;;;;;;3.08;1.70;;;;;;;27.64;41.55;99683.38;5033302;28;20198;-81
2022/06/11 16:05:28;;;;;;;2.53;1.80;;;;;;;27.45;40.52;99677.44;5016025;28;20299;-82
2022/06/11 16:07:56;;;;;;;1.90;1.70;;;;;;;27.33;40.12;99674.59;5012151;28;20237;-81
2022/06/11 16:10:27;;;;;;;2.15;1.90;;;;;;;27.13;40.47;99684.34;5012047;28;20193;-79
2022/06/11 16:12:55;;;;;;;2.67;1.80;;;;;;;26.84;39.09;99673.22;5011479;28;20605;-80
2022/06/11 16:15:34;;;;;;;1.90;1.67;;;;;;;26.60;39.19;99674.53;5014558;28;20279;-82
2022/06/11 16:18:01;;;;;;;1.80;1.70;;;;;;;26.26;41.29;99671.81;5031397;28;20702;-81
2022/06/11 16:20:36;;;;;;;1.92;1.70;;;;;;;26.53;41.67;99676.16;5015601;28;20647;-81
2022/06/11 16:23:16;;;;;;;1.77;1.67;;;;;;;26.83;41.60;99680.66;5031470;28;20279;-81
2022/06/11 16:25:48;;;;;;;2.42;2.00;;;;;;;26.72;42.86;99677.44;5014633;28;20706;-82
2022/06/11 16:28:24;;;;;;;2.22;2.00;;;;;;;26.67;41.82;99674.06;5031275;28;21092;-82
2022/06/11 16:30:52;;;;;;;2.65;1.83;;;;;;;26.90;41.51;99677.44;5014777;28;20204;-84
2022/06/11 16:33:30;;;;;;;2.10;1.90;;;;;;;26.87;41.24;99676.16;4998622;28;20455;-82
2022/06/11 16:36:05;;;;;;;2.00;1.80;;;;;;;26.88;42.04;99679.69;5014469;28;20287;-82
2022/06/11 16:38:46;;;;;;;2.58;1.80;;;;;;;26.65;43.98;99677.13;5031438;28;20254;-80
2022/06/11 16:42:48;;;;;;;2.15;1.95;;;;;;;26.96;43.88;99678.91;5031434;28;20710;-83
2022/06/11 16:44:29;;;;;;;2.95;1.90;;;;;;;26.95;44.05;99678.09;5032251;28;20514;-85
2022/06/11 16:47:12;;;;;;;2.25;1.80;;;;;;;26.94;44.51;99684.72;5014519;28;20216;-80
2022/06/11 16:58:08;;;;;;;2.67;1.90;;;;;;;26.83;41.22;99677.13;5016510;28;20709;-80
2022/06/11 17:00:41;;;;;;;2.75;1.70;;;;;;;26.68;41.16;99681.16;5013977;28;20300;-80
2022/06/11 17:03:10;;;;;;;2.03;1.83;;;;;;;26.46;40.79;99678.56;5014389;28;20291;-80
2022/06/11 17:05:40;;;;;;;1.95;1.75;;;;;;;26.46;41.45;99673.06;5013931;28;20229;-80
2022/06/11 17:08:07;;;;;;;2.08;1.83;;;;;;;26.26;41.65;99683.59;5030093;28;20291;-80
2022/06/11 17:10:38;;;;;;;2.45;1.80;;;;;;;26.16;41.81;99680.31;5014499;28;20196;-81
2022/06/11 17:13:19;;;;;;;2.35;1.77;;;;;;;25.91;43.30;99681.88;5036046;28;20332;-83
2022/06/11 17:15:54;;;;;;;3.10;2.05;;;;;;;25.78;43.17;99677.31;5037028;28;20205;-81
2022/06/11 17:18:26;;;;;;;3.05;1.85;;;;;;;25.83;44.11;99680.75;5036814;28;20564;-82
2022/06/11 17:20:58;;;;;;;2.00;1.80;;;;;;;25.76;44.53;99676.81;5037017;28;20205;-82
2022/06/11 17:23:41;;;;;;;2.17;1.75;;;;;;;25.72;44.49;99679.41;5036746;28;20257;-81
2022/06/11 17:26:13;;;;;;;3.17;1.58;;;;;;;25.49;45.31;99682.50;5036716;28;20209;-83
2022/06/11 17:28:41;;;;;;;2.97;1.90;;;;;;;25.39;47.19;99689.09;5036357;28;20192;-82
2022/06/11 17:31:29;;;;;;;4.03;1.90;;;;;;;25.38;46.95;99685.53;5053151;28;20607;-83
2022/06/11 17:33:56;;;;;;;1.85;1.75;;;;;;;25.33;48.12;99698.59;5036412;28;20196;-85
2022/06/11 17:36:23;;;;;;;2.88;1.90;;;;;;;25.26;48.18;99693.56;5036766;28;20752;-83
2022/06/11 17:38:58;;;;;;;2.65;1.83;;;;;;;25.12;48.42;99698.31;5052811;28;20749;-79
2022/06/11 17:41:29;;;;;;;3.53;2.05;;;;;;;25.13;48.24;99697.19;5053004;28;20188;-82
2022/06/11 17:43:56;;;;;;;3.63;2.20;;;;;;;24.93;49.75;99693.03;5052665;28;20284;-84
2022/06/11 17:46:29;;;;;;;2.53;2.08;;;;;;;24.81;49.81;99698.25;5036548;28;20630;-83
2022/06/11 17:48:56;;;;;;;3.30;2.25;;;;;;;24.64;50.50;99691.81;5052765;28;20602;-82
2022/06/11 17:51:32;;;;;;;2.20;1.90;;;;;;;24.57;50.81;99705.97;5037503;28;20190;-83
2022/06/11 17:54:00;;;;;;;2.50;2.30;;;;;;;24.44;50.56;99710.38;5036073;28;20269;-83
2022/06/11 17:56:29;;;;;;;2.47;2.00;;;;;;;24.25;52.06;99703.41;5035540;28;20210;-82
2022/06/11 17:58:55;;;;;;;3.08;2.30;;;;;;;24.24;51.87;99710.81;5033703;28;20228;-80
2022/06/11 18:01:32;;;;;;;3.53;2.10;;;;;;;24.27;52.17;99715.66;5033093;28;20224;-81
2022/06/11 18:04:00;;;;;;;2.17;1.98;;;;;;;23.94;53.98;99717.72;5049188;28;20581;-83
2022/06/11 18:06:27;;;;;;;2.53;2.00;;;;;;;23.93;54.51;99718.84;5040270;28;20258;-82
2022/06/11 18:08:53;;;;;;;2.92;2.08;;;;;;;23.69;55.85;99716.31;5039962;28;20232;-84
2022/06/11 18:11:20;;;;;;;4.38;2.20;;;;;;;23.52;57.56;99724.28;5056741;28;20215;-82
2022/06/11 18:13:47;;;;;;;2.33;1.70;;;;;;;23.41;58.40;99719.31;5056257;28;20674;-86
2022/06/11 18:16:15;;;;;;;3.08;1.90;;;;;;;23.33;59.28;99726.25;5058112;28;20239;-81
2022/06/11 18:18:46;;;;;;;1.83;1.70;;;;;;;23.19;62.05;99731.69;5023186;28;20523;-81
2022/06/11 18:26:48;;;;;;;2.22;2.03;;;;;;;22.68;68.27;99739.06;5056739;28;20234;-79
2022/06/11 18:29:15;;;;;;;2.10;1.88;;;;;;;22.55;69.82;99746.09;5040704;28;20501;-86
2022/06/11 18:31:42;;;;;;;2.10;1.90;;;;;;;22.34;73.61;99748.31;5040354;28;20265;-85
2022/06/11 18:34:11;;;;;;;2.30;2.10;;;;;;;22.21;72.96;99751.75;5023997;28;20194;-84
2022/06/11 18:36:37;;;;;;;2.63;1.90;;;;;;;22.09;74.00;99758.75;5057675;28;20176;-81
2022/06/11 18:39:05;;;;;;;2.67;1.90;;;;;;;21.95;76.60;99764.09;5056499;28;20211;-83
2022/06/11 18:41:33;;;;;;;2.42;2.15;;;;;;;21.80;81.09;99758.78;5040010;28;20200;-81
2022/06/11 18:43:59;;;;;;;2.55;2.00;;;;;;;21.70;81.20;99765.16;5054791;28;20230;-80
2022/06/11 18:46:27;;;;;;;3.63;2.00;;;;;;;21.56;83.95;99766.94;5035922;28;20647;-79
2022/06/11 18:48:54;;;;;;;2.67;2.10;;;;;;;21.45;85.94;99763.53;5027805;28;20511;-79
2022/06/11 18:51:21;;;;;;;2.38;2.08;;;;;;;21.38;87.73;99771.19;5052340;28;20192;-78
2022/06/11 18:53:48;;;;;;;2.20;2.00;;;;;;;21.28;89.39;99774.03;5047002;28;20213;-83
2022/06/11 18:56:15;;;;;;;2.50;2.28;;;;;;;21.22;92.78;99780.63;5024310;28;20222;-85
2022/06/11 18:58:42;;;;;;;3.40;2.33;;;;;;;21.00;97.78;99783.75;5036597;28;20190;-84
2022/06/11 19:01:09;;;;;;;4.25;2.50;;;;;;;20.89;100.00;99784.94;5032118;28;20197;-88
2022/06/11 19:03:36;;;;;;;6.43;2.50;;;;;;;20.79;100.00;99786.91;5041068;28;20242;-86
2022/06/11 19:06:03;;;;;;;3.83;2.55;;;;;;;20.70;100.00;99789.44;5037394;28;20238;-88
2022/06/11 19:08:30;;;;;;;3.33;2.38;;;;;;;20.59;100.00;99793.28;5043453;28;20198;-89
2022/06/11 19:10:57;;;;;;;4.30;2.75;;;;;;;20.48;100.00;99789.81;5035497;28;20563;-89
2022/06/11 19:13:25;;;;;;;2.97;2.67;;;;;;;20.39;100.00;99791.50;5049776;28;20185;-86
2022/06/11 19:15:53;;;;;;;3.10;2.80;;;;;;;20.29;100.00;99794.25;5032705;28;20190;-84
2022/06/11 19:18:20;;;;;;;3.00;2.70;;;;;;;20.12;100.00;99800.03;5045123;28;20669;-84
2022/06/11 19:20:48;;;;;;;2.90;2.60;;;;;;;20.03;100.00;99804.41;5027038;28;20273;-87
2022/06/11 19:23:16;;;;;;;3.63;2.80;;;;;;;19.91;100.00;99813.97;5025430;28;20213;-84
2022/06/11 19:25:45;;;;;;;3.30;3.00;;;;;;;19.87;100.00;99815.63;5025592;28;20270;-87
2022/06/11 19:28:12;;;;;;;3.43;3.23;;;;;;;19.71;100.00;99812.94;5049400;28;20190;-84
2022/06/11 19:30:41;;;;;;;3.83;3.10;;;;;;;19.60;100.00;99821.34;5022551;28;20247;-87
2022/06/11 19:33:09;;;;;;;5.00;3.97;;;;;;;19.52;100.00;99819.19;5022483;28;20193;-86
2022/06/11 19:35:39;;;;;;;4.60;3.50;;;;;;;19.38;100.00;99813.47;5055426;28;20221;-84
2022/06/11 19:38:07;;;;;;;3.73;3.40;;;;;;;19.36;100.00;99818.38;5038899;28;20185;-86
2022/06/11 19:40:38;;;;;;;3.37;3.07;;;;;;;19.24;100.00;99815.09;5038940;28;20214;-83
2022/06/11 19:43:07;;;;;;;4.03;2.90;;;;;;;19.21;100.00;99819.19;5021855;28;20268;-84
2022/06/11 19:45:42;;;;;;;3.30;3.10;;;;;;;19.13;100.00;99818.94;5038417;28;20212;-80
2022/06/11 19:48:24;;;;;;;3.80;3.17;;;;;;;19.10;100.00;99822.97;5039931;28;20224;-80
2022/06/11 19:50:53;;;;;;;3.63;3.23;;;;;;;19.07;100.00;99820.81;5052466;28;20189;-79
2022/06/11 19:53:20;;;;;;;3.70;3.40;;;;;;;19.06;100.00;99823.78;5018287;28;20207;-80
2022/06/11 19:55:47;;;;;;;4.70;3.47;;;;;;;18.97;100.00;99834.38;5018414;28;20244;-81
2022/06/11 19:58:14;;;;;;;3.70;3.40;;;;;;;18.94;100.00;99832.22;5035999;28;20206;-80
2022/06/11 20:00:42;;;;;;;3.67;3.43;;;;;;;18.88;100.00;99833.28;5038195;28;20337;-81
2022/06/11 20:03:09;;;;;;;4.43;3.60;;;;;;;18.85;100.00;99828.38;5037940;28;20222;-81
2022/06/11 20:05:36;;;;;;;3.50;3.20;;;;;;;18.83;100.00;99831.38;5037484;28;20570;-82
2022/06/11 20:08:04;;;;;;;3.70;3.40;;;;;;;18.77;100.00;99834.34;5037644;28;20186;-81
2022/06/11 20:10:31;;;;;;;3.83;3.53;;;;;;;18.74;100.00;99821.31;5054335;28;20216;-81
2022/06/11 20:12:58;;;;;;;3.90;3.60;;;;;;;18.67;100.00;99826.16;5037685;28;20282;-83
2022/06/11 20:15:25;;;;;;;3.80;3.50;;;;;;;18.65;100.00;99825.63;5054283;28;20241;-83
2022/06/11 20:17:54;;;;;;;4.40;3.63;;;;;;;18.57;100.00;99826.16;5021195;28;20203;-81
2022/06/11 20:20:21;;;;;;;4.00;3.80;;;;;;;18.46;100.00;99823.38;5037862;28;20578;-81
2022/06/11 20:22:50;;;;;;;6.03;3.77;;;;;;;18.42;100.00;99832.31;5057783;28;20196;-83
2022/06/11 20:25:18;;;;;;;4.80;3.83;;;;;;;18.52;100.00;99845.09;5021486;28;20216;-81
2022/06/11 20:27:50;;;;;;;3.90;3.50;;;;;;;18.28;100.00;99845.56;5002021;28;20192;-83